Friday, April 20, 2018, 6:36 AM EDT
Back to Local

KESN, Easton / Newman Field

Location: Easton, MD, United States Lat: 38.8
Local Time: 6:36 AM EDT (10:36 GMT) Lon: -76.067
Time Zone: US/Eastern Elev: 72 ft

Show me the last for .
Show Decoded

2018-04-20 05:50 METAR KESN 200950Z 32010G19KT 10SM SCT100 04/M05 A3026 =
2018-04-20 05:34 METAR KESN 200934Z AUTO 33013KT 10SM CLR 04/M05 A3025 RMK AO2 T00401047 =
2018-04-20 05:27 METAR KESN 200929Z AUTO 33012G17KT 10SM CLR 04/M05 A3025 RMK AO2 T00401047 =
2018-04-20 05:07 METAR KESN 200909Z AUTO 34010KT 10SM CLR 04/M05 A3024 RMK AO2 T00401050 =
2018-04-20 04:49 METAR KESN 200849Z AUTO 33013G22KT 10SM CLR 04/M05 A3023 RMK AO2 T00431053 =
2018-04-20 04:26 METAR KESN 200829Z AUTO 34011G16KT 10SM CLR 05/M05 A3023 RMK AO2 T00451048 =
2018-04-20 04:06 METAR KESN 200809Z AUTO 33010G16KT 10SM CLR 05/M05 A3023 RMK AO2 T00461050 =
2018-04-20 03:49 METAR KESN 200749Z AUTO 34008KT 10SM CLR 05/M05 A3021 RMK AO2 T00451048 =
2018-04-20 03:27 METAR KESN 200729Z AUTO 33011G15KT 10SM CLR 05/M05 A3021 RMK AO2 T00501051 =
2018-04-20 03:07 METAR KESN 200709Z AUTO 33011KT 10SM CLR 05/M05 A3020 RMK AO2 T00531055 =
2018-04-20 02:49 METAR KESN 200649Z AUTO 33009G21KT 10SM CLR 06/M05 A3020 RMK AO2 T00551055 =
2018-04-20 02:27 METAR KESN 200629Z AUTO 33008G16KT 10SM CLR 05/M05 A3019 RMK AO2 T00541051 =
2018-04-20 02:07 METAR KESN 200609Z AUTO 33009G14KT 10SM CLR 06/M05 A3019 RMK AO2 T00551052 =
2018-04-20 01:49 METAR KESN 200549Z AUTO 33012G19KT 10SM SCT048 06/M05 A3018 RMK AO2 T00601050 =
2018-04-20 01:27 METAR KESN 200529Z AUTO 32006KT 10SM SCT048 06/M03 A3018 RMK AO2 T00551035 =
2018-04-20 01:07 METAR KESN 200509Z AUTO 32009G14KT 10SM CLR 06/M03 A3018 RMK AO2 T00601033 =
2018-04-20 00:49 METAR KESN 200449Z AUTO 31006KT 10SM CLR 06/M03 A3018 RMK AO2 T00561030 =
2018-04-20 00:26 METAR KESN 200429Z AUTO 32006KT 10SM CLR 06/M03 A3018 RMK AO2 T00561032 =
2018-04-20 00:07 METAR KESN 200409Z AUTO 33006KT 10SM CLR 06/M03 A3018 RMK AO2 T00561033 =
2018-04-19 23:49 METAR KESN 200349Z AUTO 33009G14KT 10SM CLR 06/M03 A3017 RMK AO2 T00611033 =
2018-04-19 23:27 METAR KESN 200329Z AUTO 33010G16KT 10SM CLR 06/M03 A3017 RMK AO2 T00611034 =
2018-04-19 23:07 METAR KESN 200309Z AUTO 33009KT 10SM CLR 06/M04 A3017 RMK AO2 T00631036 =
2018-04-19 22:49 METAR KESN 200249Z AUTO 33010G17KT 10SM SCT050 06/M03 A3017 RMK AO2 T00641033 =
2018-04-19 22:27 METAR KESN 200229Z AUTO 33012G17KT 10SM BKN050 07/M03 A3017 RMK AO2 T00701031 =
2018-04-19 21:45 METAR KESN 200145Z 33012G17KT 10SM OVC050 07/M03 A3016 =
2018-04-19 20:45 METAR KESN 200045Z 34018G26KT 10SM OVC050 08/M03 A3013 =
2018-04-19 19:45 METAR KESN 192345Z 32025G30KT 10SM BKN050 08/M03 A3008 =
2018-04-19 18:58 METAR KESN 192258Z 33019G26KT 10SM BKN060 09/M03 A3004 =
2018-04-19 17:45 METAR KESN 192145Z 32017G28KT 10SM SCT060 10/M02 A2997 =
2018-04-19 16:50 METAR KESN 192050Z 32022G31KT 10SM BKN060 12/00 A2994 =
2018-04-19 15:50 METAR KESN 191950Z 31022G27KT 10SM BKN060 14/02 A2989 =
2018-04-19 14:50 METAR KESN 191850Z 31011G18KT 10SM -DZ SCT040 BKN065 11/03 A2987 =
2018-04-19 13:50 METAR KESN 191750Z 33016G27KT 10SM -DZ FEW012 SCT037 BKN065 10/04 A2985 =
2018-04-19 12:50 METAR KESN 191650Z 33010KT 10SM SCT030 BKN040 OVC060 12/07 A2979 =
2018-04-19 11:50 METAR KESN 191550Z 27007KT 10SM BKN080 13/07 A2978 =
2018-04-19 10:50 METAR KESN 191450Z 23005KT 7SM -DZ SCT015 BKN060 10/08 A2977 =
2018-04-19 09:50 METAR KESN 191350Z 26005KT 7SM -RA SCT010 BKN016 BKN024 11/08 A2975 =
2018-04-19 08:50 METAR KESN 191250Z 33005KT 10SM SCT010 BKN023 11/06 A2972 =
2018-04-19 07:50 METAR KESN 191150Z 00000KT 10SM BKN090 11/05 A2968 =
2018-04-19 06:59 METAR KESN 191059Z 06005KT 10SM SCT100 10/05 A2969 =

Support USWX by starting your Amazon purchase here.